createdAt,value
2018-06-20T00:00:08.709Z,16.50
2018-06-20T00:02:36.896Z,16.50
2018-06-20T00:05:05.099Z,16.40
2018-06-20T00:07:33.299Z,16.40
2018-06-20T00:10:01.486Z,16.40
2018-06-20T00:12:29.667Z,16.30
2018-06-20T00:17:25.833Z,16.40
2018-06-20T00:19:54.037Z,16.40
2018-06-20T00:22:22.272Z,16.40
2018-06-20T00:24:50.435Z,16.30
2018-06-20T00:27:18.645Z,16.40
2018-06-20T00:29:46.856Z,16.30
2018-06-20T00:32:15.053Z,16.30
2018-06-20T00:34:43.644Z,16.30
2018-06-20T00:37:11.867Z,16.30
2018-06-20T00:39:40.077Z,16.30
2018-06-20T00:42:08.260Z,16.20
2018-06-20T00:49:32.357Z,16.30
2018-06-20T00:52:00.543Z,16.30
2018-06-20T00:56:56.709Z,16.30
2018-06-20T00:59:24.924Z,16.30
2018-06-20T01:01:53.118Z,16.20
2018-06-20T01:04:21.325Z,16.20
2018-06-20T01:06:49.506Z,16.20
2018-06-20T01:09:17.725Z,16.20
2018-06-20T01:11:45.998Z,16.20
2018-06-20T01:14:14.094Z,16.20
2018-06-20T01:16:42.487Z,16.20
2018-06-20T01:19:10.683Z,16.20
2018-06-20T01:21:38.895Z,16.20
2018-06-20T01:24:07.117Z,16.20
2018-06-20T01:26:35.341Z,16.10
2018-06-20T01:29:03.550Z,16.10
2018-06-20T01:31:38.170Z,16.10
2018-06-20T01:34:06.357Z,16.10
2018-06-20T01:39:02.501Z,16.20
2018-06-20T01:41:30.706Z,16.10
2018-06-20T01:43:58.900Z,16.10
2018-06-20T01:46:27.103Z,16.10
2018-06-20T01:48:55.281Z,16.10
2018-06-20T01:51:23.438Z,16.00
2018-06-20T01:53:51.627Z,16.00
2018-06-20T01:56:19.792Z,16.00
2018-06-20T01:58:47.963Z,16.00
2018-06-20T02:01:16.179Z,16.00
2018-06-20T02:03:44.417Z,16.00
2018-06-20T02:06:12.625Z,16.00
2018-06-20T02:08:40.797Z,16.00
2018-06-20T02:11:08.992Z,15.90
2018-06-20T02:13:37.215Z,16.00
2018-06-20T02:16:05.414Z,15.90
2018-06-20T02:18:33.650Z,15.90
2018-06-20T02:21:01.896Z,15.90
2018-06-20T02:23:30.081Z,15.90
2018-06-20T02:25:58.249Z,15.90
2018-06-20T02:28:26.448Z,15.90
2018-06-20T02:30:54.629Z,15.90
2018-06-20T02:33:22.821Z,15.80
2018-06-20T02:35:51.025Z,15.80
2018-06-20T02:38:19.238Z,15.80
2018-06-20T02:40:47.451Z,15.70
2018-06-20T02:45:43.606Z,15.70
2018-06-20T02:48:11.814Z,15.70
2018-06-20T02:50:39.987Z,15.60
2018-06-20T02:53:08.183Z,15.70
2018-06-20T02:55:36.362Z,15.70
2018-06-20T02:58:04.600Z,15.70
2018-06-20T03:00:32.794Z,15.60
2018-06-20T03:03:01.044Z,15.60
2018-06-20T03:05:29.233Z,15.60
2018-06-20T03:07:57.423Z,15.60
2018-06-20T03:10:25.632Z,15.60
2018-06-20T03:12:54.836Z,15.50
2018-06-20T03:15:23.020Z,15.60
2018-06-20T03:17:51.230Z,15.50
2018-06-20T03:20:19.436Z,15.50
2018-06-20T03:22:47.625Z,15.50
2018-06-20T03:25:15.811Z,15.50
2018-06-20T03:27:43.998Z,15.50
2018-06-20T03:30:12.244Z,15.50
2018-06-20T03:35:08.390Z,15.50
2018-06-20T03:40:05.132Z,15.50
2018-06-20T03:42:33.319Z,15.40
2018-06-20T03:47:29.469Z,15.40
2018-06-20T03:49:57.678Z,15.40
2018-06-20T03:52:25.872Z,15.40
2018-06-20T03:54:54.048Z,15.50
2018-06-20T03:57:22.232Z,15.50
2018-06-20T03:59:50.420Z,15.50
2018-06-20T04:02:18.646Z,15.50
2018-06-20T04:04:46.764Z,15.50
2018-06-20T04:07:14.983Z,15.50
2018-06-20T04:09:43.167Z,15.50
2018-06-20T04:12:11.340Z,15.50
2018-06-20T04:14:39.531Z,15.50
2018-06-20T04:17:07.719Z,15.50
2018-06-20T04:19:35.906Z,15.50
2018-06-20T04:22:04.067Z,15.60
2018-06-20T04:24:32.278Z,15.60
2018-06-20T04:27:00.480Z,15.60
2018-06-20T04:29:28.650Z,15.60
2018-06-20T04:31:56.913Z,15.60
2018-06-20T04:34:25.099Z,15.60
2018-06-20T04:36:53.280Z,15.70
2018-06-20T04:39:21.492Z,15.60
2018-06-20T04:41:49.681Z,15.70
2018-06-20T04:46:45.816Z,15.80
2018-06-20T04:49:13.986Z,15.90
2018-06-20T04:51:42.168Z,16.00
2018-06-20T04:56:38.287Z,16.20
2018-06-20T04:59:06.552Z,16.30
2018-06-20T05:01:34.740Z,16.40
2018-06-20T05:04:02.920Z,16.50
2018-06-20T05:06:31.103Z,16.50
2018-06-20T05:09:01.335Z,16.50
2018-06-20T05:13:57.749Z,16.60
2018-06-20T05:16:25.924Z,16.60
2018-06-20T05:18:54.114Z,16.60
2018-06-20T05:21:22.351Z,16.60
2018-06-20T05:23:50.516Z,16.60
2018-06-20T05:26:18.712Z,16.70
2018-06-20T05:28:46.911Z,16.70
2018-06-20T05:31:15.108Z,16.80
2018-06-20T05:33:43.313Z,16.80
2018-06-20T05:36:11.488Z,16.80
2018-06-20T05:38:39.671Z,16.70
2018-06-20T05:41:07.873Z,16.90
2018-06-20T05:43:36.241Z,16.90
2018-06-20T05:46:04.343Z,16.90
2018-06-20T05:48:32.541Z,16.90
2018-06-20T05:51:00.731Z,16.90
2018-06-20T05:53:28.954Z,17.00
2018-06-20T05:55:57.137Z,17.00
2018-06-20T06:00:53.376Z,17.10
2018-06-20T06:06:01.321Z,17.20
2018-06-20T06:08:29.499Z,17.30
2018-06-20T06:10:57.683Z,17.30
2018-06-20T06:13:25.871Z,17.40
2018-06-20T06:15:54.099Z,17.40
2018-06-20T06:18:22.272Z,17.30
2018-06-20T06:20:50.499Z,17.30
2018-06-20T06:23:18.750Z,17.30
2018-06-20T06:25:46.880Z,17.40
2018-06-20T06:28:15.075Z,17.40
2018-06-20T06:30:43.366Z,17.40
2018-06-20T06:33:11.508Z,17.40
2018-06-20T06:35:39.696Z,17.50
2018-06-20T06:38:08.021Z,17.50
2018-06-20T06:40:36.184Z,17.60
2018-06-20T06:43:04.411Z,17.60
2018-06-20T06:48:00.702Z,17.50
2018-06-20T06:50:28.891Z,17.50
2018-06-20T06:52:57.076Z,17.60
2018-06-20T06:55:25.256Z,17.60
2018-06-20T06:57:53.461Z,17.70
2018-06-20T07:00:21.632Z,17.80
2018-06-20T07:05:17.848Z,17.80
2018-06-20T07:07:46.023Z,17.90
2018-06-20T07:10:14.230Z,17.90
2018-06-20T07:12:42.416Z,18.00
2018-06-20T07:15:10.597Z,18.00
2018-06-20T07:17:38.834Z,18.10
2018-06-20T07:20:07.009Z,18.30
2018-06-20T07:22:35.183Z,18.30
2018-06-20T07:25:03.505Z,18.40
2018-06-20T07:27:38.204Z,18.50
2018-06-20T07:30:06.434Z,18.50
2018-06-20T07:32:34.584Z,18.30
2018-06-20T07:35:02.761Z,18.30
2018-06-20T07:37:30.941Z,18.30
2018-06-20T07:39:59.123Z,18.40
2018-06-20T07:42:27.324Z,18.40
2018-06-20T07:44:55.552Z,18.30
2018-06-20T07:47:23.737Z,18.30
2018-06-20T07:49:51.920Z,18.40
2018-06-20T07:52:20.116Z,18.40
2018-06-20T07:54:48.308Z,18.50
2018-06-20T07:57:16.491Z,18.50
2018-06-20T07:59:50.092Z,18.50
2018-06-20T08:02:35.291Z,18.40
2018-06-20T08:05:08.945Z,18.50
2018-06-20T08:07:42.711Z,18.50
2018-06-20T08:11:14.809Z,18.60
2018-06-20T08:13:48.477Z,18.70
2018-06-20T08:16:22.043Z,18.70
2018-06-20T08:18:55.728Z,18.70
2018-06-20T08:21:23.862Z,18.70
2018-06-20T08:23:52.092Z,18.80
2018-06-20T08:26:20.290Z,18.80
2018-06-20T08:28:48.495Z,19.00
2018-06-20T08:31:16.696Z,19.10
2018-06-20T08:36:12.836Z,19.20
2018-06-20T08:38:41.041Z,19.30
2018-06-20T08:41:09.309Z,19.40
2018-06-20T08:43:37.504Z,19.40
2018-06-20T08:46:05.684Z,19.30
2018-06-20T08:48:33.879Z,19.40
2018-06-20T08:51:02.092Z,19.40
2018-06-20T08:55:58.228Z,19.40
2018-06-20T09:00:59.751Z,19.30
2018-06-20T09:03:27.988Z,19.30
2018-06-20T09:06:01.595Z,19.40
2018-06-20T09:08:35.221Z,19.50
2018-06-20T09:11:08.771Z,19.50
2018-06-20T09:19:18.983Z,19.30
2018-06-20T09:21:47.180Z,19.40
2018-06-20T09:24:15.361Z,19.40
2018-06-20T09:26:43.555Z,19.40
2018-06-20T09:29:11.727Z,19.40
2018-06-20T09:31:39.912Z,19.30
2018-06-20T09:34:08.107Z,19.60
2018-06-20T09:36:36.284Z,19.70
2018-06-20T09:39:07.046Z,19.90
2018-06-20T09:41:35.259Z,19.90
2018-06-20T09:44:03.445Z,19.90
2018-06-20T09:46:31.635Z,20.00
2018-06-20T09:48:59.934Z,20.10
2018-06-20T09:51:28.135Z,20.30
2018-06-20T09:53:56.332Z,20.40
2018-06-20T09:56:24.584Z,20.40
2018-06-20T09:58:52.799Z,20.40
2018-06-20T10:01:26.445Z,20.40
2018-06-20T10:04:00.057Z,20.60
2018-06-20T10:06:33.845Z,20.50
2018-06-20T10:10:06.984Z,20.60
2018-06-20T10:12:40.670Z,20.70
2018-06-20T10:15:09.734Z,20.80
2018-06-20T10:17:37.927Z,21.00
2018-06-20T10:20:10.351Z,21.10
2018-06-20T10:22:38.524Z,21.20
2018-06-20T10:25:07.257Z,21.10
2018-06-20T10:27:35.488Z,21.30
2018-06-20T10:30:03.708Z,21.30
2018-06-20T10:32:31.999Z,21.30
2018-06-20T10:35:00.180Z,21.20
2018-06-20T10:37:28.379Z,21.20
2018-06-20T10:39:56.629Z,20.90
2018-06-20T10:42:24.799Z,20.90
2018-06-20T10:44:52.977Z,20.80
2018-06-20T10:47:41.268Z,20.90
2018-06-20T10:50:09.457Z,20.80
2018-06-20T10:52:37.672Z,20.60
2018-06-20T10:55:06.089Z,20.90
2018-06-20T10:57:39.796Z,21.10
2018-06-20T11:00:13.504Z,21.20
2018-06-20T11:02:47.075Z,21.40
2018-06-20T11:05:20.765Z,21.20
2018-06-20T11:08:57.174Z,21.20
2018-06-20T11:11:30.954Z,21.30
2018-06-20T11:13:59.234Z,21.30
2018-06-20T11:16:27.373Z,21.30
2018-06-20T11:18:56.332Z,21.20
2018-06-20T11:21:24.569Z,21.30
2018-06-20T11:23:52.767Z,21.20
2018-06-20T11:26:21.002Z,21.20
2018-06-20T11:28:49.192Z,21.30
2018-06-20T11:31:17.392Z,21.20
2018-06-20T11:38:41.479Z,21.40
2018-06-20T11:41:09.687Z,21.60
2018-06-20T11:43:37.884Z,21.80
2018-06-20T11:46:11.433Z,21.90
2018-06-20T11:48:39.611Z,22.20
2018-06-20T11:53:36.639Z,22.50
2018-06-20T11:56:04.819Z,22.50
2018-06-20T11:58:38.289Z,22.80
2018-06-20T12:01:11.993Z,22.90
2018-06-20T12:03:45.520Z,22.80
2018-06-20T12:06:19.058Z,22.60
2018-06-20T12:11:26.368Z,22.90
2018-06-20T12:14:00.094Z,22.80
2018-06-20T12:16:28.327Z,22.90
2018-06-20T12:21:35.381Z,23.20
2018-06-20T12:24:09.324Z,23.30
2018-06-20T12:26:42.928Z,23.30
2018-06-20T12:29:16.602Z,23.50
2018-06-20T12:31:50.216Z,23.80
2018-06-20T12:34:23.884Z,23.80
2018-06-20T12:36:57.545Z,23.90
2018-06-20T12:41:58.509Z,23.60
2018-06-20T12:47:06.674Z,23.70
2018-06-20T12:49:37.284Z,23.50
2018-06-20T12:52:05.756Z,23.60
2018-06-20T12:54:34.120Z,23.80
2018-06-20T12:59:30.261Z,24.00
2018-06-20T13:04:26.395Z,24.30
2018-06-20T13:11:50.830Z,24.50
2018-06-20T13:14:19.020Z,24.10
2018-06-20T13:16:47.214Z,24.20
2018-06-20T13:19:15.421Z,24.10
2018-06-20T13:21:43.680Z,24.40
2018-06-20T13:24:11.868Z,24.50
2018-06-20T13:26:40.075Z,24.60
2018-06-20T13:31:41.555Z,24.80
2018-06-20T13:34:15.275Z,24.90
2018-06-20T13:36:49.016Z,24.80
2018-06-20T13:39:22.657Z,24.80
2018-06-20T13:41:56.256Z,24.90
2018-06-20T13:44:26.184Z,25.40
2018-06-20T13:46:59.865Z,25.40
2018-06-20T13:49:28.073Z,25.60
2018-06-20T13:51:56.296Z,25.60
2018-06-20T13:54:24.533Z,25.90
2018-06-20T13:56:53.372Z,26.10
2018-06-20T14:01:49.487Z,26.10
2018-06-20T14:04:17.714Z,25.80
2018-06-20T14:06:45.929Z,26.00
2018-06-20T14:09:14.113Z,26.00
2018-06-20T14:11:42.721Z,26.30
2018-06-20T14:16:38.965Z,26.40
2018-06-20T14:21:40.380Z,26.60
2018-06-20T14:24:09.728Z,26.80
2018-06-20T14:29:07.541Z,26.80
2018-06-20T14:31:41.334Z,26.50
2018-06-20T14:34:14.975Z,26.50
2018-06-20T14:36:48.696Z,26.70
2018-06-20T14:39:22.455Z,26.70
2018-06-20T14:41:56.028Z,26.90
2018-06-20T14:46:52.135Z,26.70
2018-06-20T14:49:20.331Z,26.90
2018-06-20T14:51:48.505Z,26.70
2018-06-20T14:54:16.721Z,26.80
2018-06-20T14:56:44.910Z,26.60
2018-06-20T14:59:13.131Z,26.90
2018-06-20T15:01:41.360Z,27.10
2018-06-20T15:04:09.564Z,27.40
2018-06-20T15:06:37.748Z,27.40
2018-06-20T15:09:07.997Z,27.30
2018-06-20T15:11:36.484Z,27.20
2018-06-20T15:14:04.676Z,27.20
2018-06-20T15:17:41.920Z,27.10
2018-06-20T15:22:43.412Z,26.90
2018-06-20T15:25:11.617Z,26.90
2018-06-20T15:27:45.093Z,27.00
2018-06-20T15:30:18.564Z,26.90
2018-06-20T15:35:25.515Z,26.70
2018-06-20T15:37:59.262Z,26.90
2018-06-20T15:42:55.372Z,27.10
2018-06-20T15:45:23.584Z,27.00
2018-06-20T15:50:19.705Z,27.10
2018-06-20T15:52:47.896Z,26.70
2018-06-20T15:57:44.188Z,27.00
2018-06-20T16:00:12.382Z,26.70
2018-06-20T16:02:40.572Z,27.00
2018-06-20T16:05:08.831Z,26.90
2018-06-20T16:07:37.024Z,27.00
2018-06-20T16:10:06.449Z,27.00
2018-06-20T16:15:02.588Z,26.70
2018-06-20T16:22:37.742Z,26.40
2018-06-20T16:25:11.440Z,26.10
2018-06-20T16:27:45.121Z,26.30
2018-06-20T16:30:18.817Z,26.10
2018-06-20T16:32:47.016Z,26.20
2018-06-20T16:35:15.192Z,26.30
2018-06-20T16:37:43.422Z,25.90
2018-06-20T16:40:11.596Z,25.70
2018-06-20T16:42:39.819Z,25.60
2018-06-20T16:45:07.996Z,25.60
2018-06-20T16:50:04.124Z,25.40
2018-06-20T16:52:32.308Z,25.50
2018-06-20T16:55:00.484Z,25.60
2018-06-20T16:59:56.637Z,25.50
2018-06-20T17:04:58.339Z,25.60
2018-06-20T17:07:26.536Z,25.70
2018-06-20T17:09:54.718Z,25.50
2018-06-20T17:12:28.290Z,25.50
2018-06-20T17:15:01.956Z,25.10
2018-06-20T17:20:09.167Z,24.60
2018-06-20T17:22:42.611Z,24.70
2018-06-20T17:25:13.281Z,24.80
2018-06-20T17:27:41.459Z,24.70
2018-06-20T17:32:37.580Z,24.70
2018-06-20T17:35:05.837Z,24.70
2018-06-20T17:37:34.039Z,24.70
2018-06-20T17:40:02.237Z,24.60
2018-06-20T17:42:30.469Z,24.50
2018-06-20T17:44:58.648Z,24.50
2018-06-20T17:47:26.841Z,24.50
2018-06-20T17:52:22.976Z,24.20
2018-06-20T17:54:51.160Z,24.10
2018-06-20T17:57:19.346Z,24.00
2018-06-20T17:59:47.509Z,23.70
2018-06-20T18:04:49.168Z,23.10
2018-06-20T18:07:22.833Z,23.10
2018-06-20T18:09:56.524Z,23.00
2018-06-20T18:13:29.710Z,22.90
2018-06-20T18:16:03.233Z,22.90
2018-06-20T18:18:31.464Z,22.50
2018-06-20T18:20:59.644Z,22.60
2018-06-20T18:23:27.820Z,22.60
2018-06-20T18:25:55.993Z,22.60
2018-06-20T18:28:24.188Z,22.50
2018-06-20T18:30:52.388Z,22.50
2018-06-20T18:33:20.600Z,22.40
2018-06-20T18:38:16.818Z,22.20
2018-06-20T18:40:45.033Z,22.20
2018-06-20T18:43:13.196Z,22.10
2018-06-20T18:45:41.403Z,22.10
2018-06-20T18:48:14.940Z,22.10
2018-06-20T18:50:43.120Z,22.10
2018-06-20T18:53:11.378Z,22.10
2018-06-20T18:55:39.585Z,22.00
2018-06-20T18:59:16.903Z,22.20
2018-06-20T19:01:50.665Z,22.30
2018-06-20T19:04:32.108Z,22.30
2018-06-20T19:07:05.552Z,22.40
2018-06-20T19:09:33.749Z,22.40
2018-06-20T19:12:01.925Z,22.40
2018-06-20T19:14:30.121Z,22.60
2018-06-20T19:16:58.412Z,22.50
2018-06-20T19:19:26.609Z,22.60
2018-06-20T19:21:54.784Z,22.30
2018-06-20T19:24:22.972Z,22.20
2018-06-20T19:26:51.156Z,21.90
2018-06-20T19:31:47.521Z,21.60
2018-06-20T19:34:15.704Z,21.30
2018-06-20T19:36:44.451Z,21.30
2018-06-20T19:39:18.214Z,21.20
2018-06-20T19:41:46.413Z,21.10
2018-06-20T19:44:20.113Z,21.00
2018-06-20T19:46:48.312Z,20.90
2018-06-20T19:49:16.555Z,20.90
2018-06-20T19:51:45.172Z,20.90
2018-06-20T19:54:13.299Z,20.70
2018-06-20T19:56:41.476Z,20.60
2018-06-20T19:59:09.657Z,20.50
2018-06-20T20:01:37.956Z,20.50
2018-06-20T20:04:06.152Z,20.40
2018-06-20T20:09:02.296Z,20.20
2018-06-20T20:13:58.448Z,20.00
2018-06-20T20:16:26.639Z,20.00
2018-06-20T20:18:54.844Z,19.90
2018-06-20T20:21:23.013Z,19.80
2018-06-20T20:23:51.287Z,19.70
2018-06-20T20:26:19.548Z,19.60
2018-06-20T20:28:47.757Z,19.50
2018-06-20T20:31:15.976Z,19.50
2018-06-20T20:33:44.173Z,19.50
2018-06-20T20:36:12.360Z,19.40
2018-06-20T20:38:40.533Z,19.40
2018-06-20T20:41:08.718Z,19.30
2018-06-20T20:43:36.891Z,19.30
2018-06-20T20:46:05.378Z,19.20
2018-06-20T20:48:33.577Z,19.20
2018-06-20T20:51:01.767Z,19.20
2018-06-20T20:53:29.977Z,19.10
2018-06-20T20:55:58.145Z,19.10
2018-06-20T20:58:26.328Z,19.00
2018-06-20T21:00:54.500Z,19.00
2018-06-20T21:03:22.683Z,19.00
2018-06-20T21:05:50.876Z,19.00
2018-06-20T21:08:19.056Z,19.00
2018-06-20T21:10:51.143Z,18.90
2018-06-20T21:13:19.322Z,18.90
2018-06-20T21:15:47.501Z,18.80
2018-06-20T21:18:15.721Z,18.80
2018-06-20T21:20:43.924Z,18.70
2018-06-20T21:23:12.144Z,18.70
2018-06-20T21:25:40.318Z,18.80
2018-06-20T21:28:08.485Z,18.70
2018-06-20T21:30:36.660Z,18.70
2018-06-20T21:33:04.912Z,18.60
2018-06-20T21:35:33.112Z,18.60
2018-06-20T21:38:01.464Z,18.50
2018-06-20T21:40:29.641Z,18.60
2018-06-20T21:42:57.811Z,18.50
2018-06-20T21:45:26.015Z,18.50
2018-06-20T21:47:54.219Z,18.40
2018-06-20T21:50:22.376Z,18.50
2018-06-20T21:52:50.544Z,18.50
2018-06-20T21:55:18.753Z,18.50
2018-06-20T21:57:46.922Z,18.50
2018-06-20T22:00:15.112Z,18.50
2018-06-20T22:02:43.320Z,18.50
2018-06-20T22:05:11.494Z,18.40
2018-06-20T22:07:39.679Z,18.40
2018-06-20T22:10:08.084Z,18.30
2018-06-20T22:12:36.268Z,18.40
2018-06-20T22:15:04.467Z,18.30
2018-06-20T22:17:32.636Z,18.30
2018-06-20T22:20:00.813Z,18.30
2018-06-20T22:24:56.944Z,18.30
2018-06-20T22:27:25.152Z,18.30
2018-06-20T22:29:53.328Z,18.30
2018-06-20T22:32:21.503Z,18.30
2018-06-20T22:34:49.687Z,18.40
2018-06-20T22:37:17.960Z,18.40
2018-06-20T22:39:46.201Z,18.40
2018-06-20T22:42:14.453Z,18.40
2018-06-20T22:44:42.711Z,18.50
2018-06-20T22:47:11.038Z,18.40
2018-06-20T22:49:39.271Z,18.40
2018-06-20T22:52:07.523Z,18.40
2018-06-20T22:54:35.782Z,18.40
2018-06-20T22:57:04.037Z,18.40
2018-06-20T22:59:32.287Z,18.40
2018-06-20T23:02:00.533Z,18.40
2018-06-20T23:04:28.787Z,18.30
2018-06-20T23:06:57.038Z,18.30
2018-06-20T23:09:25.321Z,18.30
2018-06-20T23:11:53.570Z,18.20
2018-06-20T23:16:49.835Z,18.20
2018-06-20T23:19:18.107Z,18.20
2018-06-20T23:21:46.374Z,18.20
2018-06-20T23:24:14.614Z,18.10
2018-06-20T23:26:42.878Z,18.10
2018-06-20T23:29:11.270Z,18.10
2018-06-20T23:31:39.515Z,18.20
2018-06-20T23:34:07.758Z,18.10
2018-06-20T23:36:36.006Z,18.10
2018-06-20T23:39:07.297Z,18.10
2018-06-20T23:41:35.794Z,18.10
2018-06-20T23:44:04.083Z,18.00
2018-06-20T23:46:32.334Z,17.90
2018-06-20T23:49:00.591Z,18.00
2018-06-20T23:53:56.913Z,17.80
2018-06-20T23:56:25.157Z,17.70
2018-06-20T23:58:53.411Z,17.70
